createdAt,value
2022-10-01T00:02:15.033Z,1230.40
2022-10-01T00:07:15.505Z,1239.00
2022-10-01T00:12:15.051Z,1239.00
2022-10-01T00:17:15.018Z,1250.30
2022-10-01T00:22:15.039Z,1250.30
2022-10-01T00:27:15.261Z,1226.00
2022-10-01T00:32:15.006Z,1226.00
2022-10-01T00:37:15.039Z,1222.90
2022-10-01T00:47:15.181Z,1237.30
2022-10-01T00:52:15.047Z,1237.30
2022-10-01T00:57:15.157Z,1222.40
2022-10-01T01:02:15.072Z,1222.40
2022-10-01T01:07:15.125Z,1246.40
2022-10-01T01:12:15.084Z,1246.40
2022-10-01T01:17:15.093Z,1256.90
2022-10-01T01:22:15.063Z,1256.90
2022-10-01T01:27:15.397Z,1221.50
2022-10-01T01:32:15.175Z,1221.50
2022-10-01T01:37:15.366Z,1229.00
2022-10-01T01:42:15.091Z,1229.00
2022-10-01T01:47:15.332Z,1237.30
2022-10-01T01:52:15.242Z,1237.30
2022-10-01T01:57:15.304Z,1245.30
2022-10-01T02:07:15.524Z,1240.60
2022-10-01T02:12:15.099Z,1240.60
2022-10-01T02:17:15.250Z,1248.20
2022-10-01T02:22:15.093Z,1248.20
2022-10-01T02:27:15.217Z,1250.90
2022-10-01T02:32:15.059Z,1250.90
2022-10-01T02:37:15.161Z,1250.10
2022-10-01T02:42:15.191Z,1250.10
2022-10-01T02:47:15.137Z,1263.30
2022-10-01T02:52:15.091Z,1263.30
2022-10-01T02:57:15.427Z,1266.20
2022-10-01T03:02:15.320Z,1266.20
2022-10-01T03:07:15.069Z,1259.10
2022-10-01T03:12:15.109Z,1259.10
2022-10-01T03:22:15.109Z,1267.10
2022-10-01T03:27:15.117Z,1262.30
2022-10-01T03:32:15.111Z,1262.30
2022-10-01T03:37:15.132Z,1262.50
2022-10-01T03:42:15.149Z,1262.50
2022-10-01T03:47:15.133Z,1259.50
2022-10-01T03:52:15.123Z,1259.50
2022-10-01T03:57:15.468Z,1236.70
2022-10-01T04:02:15.206Z,1236.70
2022-10-01T04:07:15.139Z,1226.30
2022-10-01T04:12:15.162Z,1226.30
2022-10-01T04:17:15.174Z,1233.90
2022-10-01T04:22:15.158Z,1233.90
2022-10-01T04:32:15.166Z,1236.40
2022-10-01T04:37:15.429Z,1257.40
2022-10-01T04:42:15.133Z,1257.40
2022-10-01T04:47:15.395Z,1247.30
2022-10-01T04:52:15.149Z,1247.30
2022-10-01T04:57:15.160Z,1219.30
2022-10-01T05:02:15.212Z,1219.30
2022-10-01T05:07:15.156Z,1229.50
2022-10-01T05:12:15.154Z,1229.50
2022-10-01T05:17:15.176Z,1231.20
2022-10-01T05:22:15.159Z,1231.20
2022-10-01T05:27:15.273Z,1222.20
2022-10-01T05:32:15.144Z,1222.20
2022-10-01T05:37:15.265Z,1219.40
2022-10-01T05:42:15.173Z,1219.40
2022-10-01T05:47:15.237Z,1229.90
2022-10-01T05:52:15.186Z,1229.90
2022-10-01T05:57:15.486Z,1247.90
2022-10-01T06:02:15.273Z,1247.90
2022-10-01T06:07:15.485Z,1257.00
2022-10-01T06:12:19.587Z,1257.00
2022-10-01T06:17:15.431Z,1248.10
2022-10-01T06:22:15.186Z,1248.10
2022-10-01T06:32:15.276Z,1264.50
2022-10-01T06:37:15.380Z,1253.70
2022-10-01T06:42:15.210Z,1253.70
2022-10-01T06:47:15.366Z,1255.40
2022-10-01T06:52:15.169Z,1255.40
2022-10-01T06:57:15.196Z,1247.80
2022-10-01T07:02:15.242Z,1247.80
2022-10-01T07:07:15.310Z,1237.10
2022-10-01T07:12:15.198Z,1237.10
2022-10-01T07:17:15.214Z,1246.40
2022-10-01T07:22:15.238Z,1246.40
2022-10-01T07:27:15.559Z,1273.80
2022-10-01T07:32:15.287Z,1273.80
2022-10-01T07:37:15.226Z,1279.30
2022-10-01T07:42:15.200Z,1279.30
2022-10-01T07:47:15.236Z,1268.20
2022-10-01T07:52:15.469Z,1268.20
2022-10-01T07:57:15.256Z,1285.60
2022-10-01T08:02:15.319Z,1285.60
2022-10-01T08:07:15.245Z,1309.90
2022-10-01T08:12:15.244Z,1309.90
2022-10-01T08:17:15.254Z,1291.30
2022-10-01T08:22:15.258Z,1291.30
2022-10-01T08:27:15.376Z,1286.70
2022-10-01T08:32:15.260Z,1286.70
2022-10-01T08:37:15.351Z,1296.20
2022-10-01T08:42:15.263Z,1296.20
2022-10-01T08:47:15.322Z,1326.00
2022-10-01T08:52:17.267Z,1326.00
2022-10-01T08:57:15.590Z,1263.40
2022-10-01T09:02:15.273Z,1263.40
2022-10-01T09:07:15.553Z,1263.70
2022-10-01T09:12:15.254Z,1263.70
2022-10-01T09:22:15.280Z,1267.90
2022-10-01T09:27:15.490Z,1275.60
2022-10-01T09:32:15.288Z,1275.60
2022-10-01T09:37:15.484Z,1278.20
2022-10-01T09:42:15.534Z,1278.20
2022-10-01T09:47:15.433Z,1302.90
2022-10-01T09:52:15.262Z,1302.90
2022-10-01T09:57:17.632Z,1298.20
2022-10-01T10:02:15.393Z,1298.20
2022-10-01T10:07:15.362Z,1312.90
2022-10-01T10:12:15.332Z,1312.90
2022-10-01T10:17:15.353Z,1325.70
2022-10-01T10:22:17.303Z,1325.70
2022-10-01T10:27:15.665Z,1351.70
2022-10-01T10:32:15.326Z,1351.70
2022-10-01T10:37:15.287Z,1356.90
2022-10-01T10:42:17.332Z,1356.90
2022-10-01T10:47:15.539Z,1360.70
2022-10-01T10:52:15.530Z,1360.70
2022-10-01T10:57:15.327Z,1338.30
2022-10-01T11:02:15.347Z,1338.30
2022-10-01T11:07:17.416Z,1370.80
2022-10-01T11:12:15.357Z,1370.80
2022-10-01T11:17:15.340Z,1379.20
2022-10-01T11:22:15.327Z,1379.20
2022-10-01T11:27:15.442Z,1360.90
2022-10-01T11:32:15.350Z,1360.90
2022-10-01T11:37:15.336Z,1413.20
2022-10-01T11:42:15.369Z,1413.20
2022-10-01T11:47:15.404Z,1389.10
2022-10-01T11:52:15.358Z,1389.10
2022-10-01T11:57:15.381Z,1387.90
2022-10-01T12:02:15.529Z,1387.90
2022-10-01T12:07:15.358Z,1397.10
2022-10-01T12:12:15.380Z,1397.10
2022-10-01T12:17:15.668Z,1419.70
2022-10-01T12:22:15.370Z,1419.70
2022-10-01T12:27:15.594Z,1435.60
2022-10-01T12:32:15.373Z,1435.60
2022-10-01T12:37:15.556Z,1433.30
2022-10-01T12:42:15.420Z,1433.30
2022-10-01T12:47:15.589Z,1449.90
2022-10-01T12:52:15.363Z,1449.90
2022-10-01T12:57:19.494Z,1417.40
2022-10-01T13:02:15.523Z,1417.40
2022-10-01T13:07:15.473Z,1447.30
2022-10-01T13:12:15.410Z,1447.30
2022-10-01T13:22:15.530Z,1451.70
2022-10-01T13:27:17.754Z,1432.90
2022-10-01T13:32:15.400Z,1432.90
2022-10-01T13:37:15.990Z,1418.00
2022-10-01T13:42:17.413Z,1418.00
2022-10-01T13:47:17.661Z,1428.60
2022-10-01T13:52:15.393Z,1428.60
2022-10-01T13:57:17.432Z,1462.80
2022-10-01T14:02:15.524Z,1462.80
2022-10-01T14:07:15.412Z,1474.00
2022-10-01T14:12:15.436Z,1474.00
2022-10-01T14:17:15.429Z,1457.20
2022-10-01T14:22:17.461Z,1457.20
2022-10-01T14:27:15.543Z,1457.20
2022-10-01T14:32:17.435Z,1432.80
2022-10-01T14:37:17.305Z,1432.80
2022-10-01T14:42:17.116Z,1426.80
2022-10-01T14:47:15.692Z,1426.80
2022-10-01T14:52:17.435Z,1475.90
2022-10-01T14:57:15.758Z,1475.90
2022-10-01T15:02:17.443Z,1628.20
2022-10-01T15:07:15.726Z,1628.20
2022-10-01T15:12:15.465Z,1428.40
2022-10-01T15:17:15.683Z,1428.40
2022-10-01T15:22:15.441Z,1404.70
2022-10-01T15:27:15.669Z,1404.70
2022-10-01T15:32:15.485Z,1392.40
2022-10-01T15:37:15.642Z,1392.40
2022-10-01T15:42:15.467Z,1391.20
2022-10-01T15:47:15.615Z,1391.20
2022-10-01T15:52:15.442Z,1366.70
2022-10-01T15:57:15.562Z,1366.70
2022-10-01T16:02:15.539Z,1378.00
2022-10-01T16:07:15.553Z,1378.00
2022-10-01T16:12:15.484Z,1367.80
2022-10-01T16:17:15.525Z,1367.80
2022-10-01T16:22:15.458Z,1379.00
2022-10-01T16:27:15.787Z,1379.00
2022-10-01T16:32:15.466Z,1370.60
2022-10-01T16:42:23.721Z,1374.00
2022-10-01T16:47:15.740Z,1374.00
2022-10-01T16:52:15.485Z,1349.40
2022-10-01T16:57:17.490Z,1349.40
2022-10-01T17:02:15.597Z,1349.10
2022-10-01T17:07:15.533Z,1349.10
2022-10-01T17:12:15.473Z,1333.90
2022-10-01T17:17:15.644Z,1333.90
2022-10-01T17:22:15.534Z,1331.50
2022-10-01T17:27:15.619Z,1331.50
2022-10-01T17:32:15.493Z,1330.30
2022-10-01T17:37:15.573Z,1330.30
2022-10-01T17:42:15.533Z,1323.60
2022-10-01T17:47:15.517Z,1323.60
2022-10-01T17:52:15.541Z,1305.80
2022-10-01T17:57:15.843Z,1305.80
2022-10-01T18:02:39.917Z,1310.90
2022-10-01T18:07:15.812Z,1310.90
2022-10-01T18:12:15.544Z,1318.70
2022-10-01T18:17:15.782Z,1318.70
2022-10-01T18:22:15.537Z,1306.10
2022-10-01T18:27:15.751Z,1306.10
2022-10-01T18:32:15.542Z,1293.80
2022-10-01T18:37:15.549Z,1293.80
2022-10-01T18:52:15.579Z,1279.30
2022-10-01T18:57:17.693Z,1279.30
2022-10-01T19:02:15.808Z,1277.90
2022-10-01T19:07:17.630Z,1277.90
2022-10-01T19:12:15.575Z,1274.20
2022-10-01T19:17:15.592Z,1274.20
2022-10-01T19:22:15.545Z,1253.90
2022-10-01T19:27:15.905Z,1253.90
2022-10-01T19:32:17.575Z,1262.30
2022-10-01T19:37:15.581Z,1262.30
2022-10-01T19:47:15.601Z,1252.70
2022-10-01T19:57:15.593Z,1234.50
2022-10-01T20:02:15.638Z,1243.70
2022-10-01T20:07:15.767Z,1243.70
2022-10-01T20:12:15.602Z,1253.00
2022-10-01T20:17:15.735Z,1253.00
2022-10-01T20:22:15.567Z,1246.00
2022-10-01T20:27:15.604Z,1246.00
2022-10-01T20:32:15.599Z,1230.90
2022-10-01T20:37:15.688Z,1230.90
2022-10-01T20:42:15.671Z,1239.50
2022-10-01T20:47:15.649Z,1239.50
2022-10-01T20:52:15.632Z,1235.10
2022-10-01T20:57:15.930Z,1235.10
2022-10-01T21:02:15.711Z,1244.80
2022-10-01T21:07:17.912Z,1244.80
2022-10-01T21:12:15.629Z,1230.60
2022-10-01T21:17:15.865Z,1230.60
2022-10-01T21:22:15.645Z,1241.70
2022-10-01T21:27:15.684Z,1241.70
2022-10-01T21:32:15.611Z,1248.20
2022-10-01T21:37:15.647Z,1248.20
2022-10-01T21:42:15.652Z,1331.10
2022-10-01T21:47:15.776Z,1331.10
2022-10-01T21:52:15.821Z,1249.80
2022-10-01T21:57:15.745Z,1249.80
2022-10-01T22:02:15.681Z,1237.60
2022-10-01T22:07:15.730Z,1237.60
2022-10-01T22:12:15.657Z,1225.30
2022-10-01T22:17:15.685Z,1225.30
2022-10-01T22:22:15.622Z,1212.60
2022-10-01T22:27:15.670Z,1212.60
2022-10-01T22:32:15.642Z,1215.60
2022-10-01T22:42:15.676Z,1208.80
2022-10-01T22:47:15.876Z,1208.80
2022-10-01T22:52:15.657Z,1188.00
2022-10-01T22:57:15.675Z,1188.00
2022-10-01T23:02:15.831Z,1190.80
2022-10-01T23:07:15.641Z,1190.80
2022-10-01T23:12:15.750Z,1187.20
2022-10-01T23:17:15.647Z,1187.20
2022-10-01T23:22:15.689Z,1192.90
2022-10-01T23:27:15.811Z,1192.90
2022-10-01T23:32:15.691Z,1199.70
2022-10-01T23:37:15.698Z,1199.70
2022-10-01T23:42:15.692Z,1191.40
2022-10-01T23:47:15.728Z,1191.40
2022-10-01T23:52:15.660Z,1166.60
2022-10-01T23:57:15.701Z,1166.60
